Time;durP1;ratioP1;P1;durP2;ratioP2;P2;SDS_P1;SDS_P2;PMS_P1;PMS_P2;Temp;Humidity;BMP_temperature;BMP_pressure;BME280_temperature;BME280_humidity;BME280_pressure;Samples;Min_cycle;Max_cycle;Signal;HPM_P1;HPM_P2
2023/03/15 00:01:17;;;;;;;18.20;2.28;;;;;;;-0.61;98.05;100283.75;7422253;19;20478;-68
2023/03/15 00:03:46;;;;;;;14.35;2.25;;;;;;;-0.63;98.24;100288.03;7423488;19;20023;-68
2023/03/15 00:06:15;;;;;;;7.57;1.52;;;;;;;-0.63;96.66;100294.88;7423830;19;20014;-69
2023/03/15 00:08:46;;;;;;;13.45;1.58;;;;;;;-0.64;96.60;100293.16;7426918;19;20015;-68
2023/03/15 00:11:15;;;;;;;8.88;1.90;;;;;;;-0.63;97.13;100297.47;7418198;19;20019;-66
2023/03/15 00:13:44;;;;;;;9.43;1.73;;;;;;;-0.62;96.94;100301.78;7423710;19;20054;-68
2023/03/15 00:16:16;;;;;;;7.75;1.60;;;;;;;-0.61;97.37;100306.09;7426349;19;20014;-70
2023/03/15 00:18:45;;;;;;;9.05;2.45;;;;;;;-0.59;97.33;100310.44;7432250;19;20024;-71
2023/03/15 00:21:14;;;;;;;8.43;2.35;;;;;;;-0.57;96.73;100318.19;7429024;19;20018;-71
2023/03/15 00:23:42;;;;;;;8.00;1.60;;;;;;;-0.57;96.05;100319.06;7427016;19;20035;-71
2023/03/15 00:26:11;;;;;;;6.70;1.48;;;;;;;-0.56;96.34;100325.94;7426127;19;20025;-72
2023/03/15 00:28:46;;;;;;;11.10;2.13;;;;;;;-0.55;95.37;100321.66;7427020;19;20020;-71
2023/03/15 00:31:26;;;;;;;10.40;2.30;;;;;;;-0.54;94.95;100329.41;7431884;19;20087;-71
2023/03/15 00:33:55;;;;;;;8.20;1.63;;;;;;;-0.52;94.34;100330.31;7417097;19;20018;-71
2023/03/15 00:36:25;;;;;;;13.15;1.98;;;;;;;-0.51;94.94;100337.19;7399626;19;20046;-72
2023/03/15 00:38:54;;;;;;;13.05;2.08;;;;;;;-0.50;95.27;100336.34;7398792;19;20505;-72
2023/03/15 00:41:24;;;;;;;11.00;1.77;;;;;;;-0.47;94.95;100335.53;7399359;19;20090;-72
2023/03/15 00:43:53;;;;;;;10.75;2.00;;;;;;;-0.56;94.81;100315.63;7399345;19;20031;-72
2023/03/15 00:46:24;;;;;;;8.75;1.80;;;;;;;-0.43;94.15;100337.34;7399684;19;20082;-72
2023/03/15 00:48:53;;;;;;;9.70;1.92;;;;;;;-0.46;94.62;100328.69;7401962;19;20417;-72
2023/03/15 00:51:24;;;;;;;9.48;2.05;;;;;;;-0.39;95.59;100340.81;7399300;19;20553;-71
2023/03/15 00:53:54;;;;;;;12.52;2.05;;;;;;;-0.40;92.38;100342.53;7400739;19;20086;-71
2023/03/15 00:56:24;;;;;;;9.95;1.83;;;;;;;-0.38;94.11;100352.84;7401615;19;20423;-72
2023/03/15 00:58:53;;;;;;;12.60;2.15;;;;;;;-0.37;93.73;100350.34;7399760;19;20018;-72
2023/03/15 01:01:27;;;;;;;7.75;1.48;;;;;;;-0.39;95.52;100353.69;7398572;19;20021;-72
2023/03/15 01:03:56;;;;;;;11.02;2.00;;;;;;;-0.39;94.86;100358.84;7400168;19;20081;-72
2023/03/15 01:06:26;;;;;;;10.50;1.90;;;;;;;-0.37;94.46;100363.22;7398544;19;20090;-72
2023/03/15 01:08:55;;;;;;;14.38;1.75;;;;;;;-0.53;95.26;100341.47;7398635;19;20502;-72
2023/03/15 01:11:26;;;;;;;12.43;2.03;;;;;;;-0.41;96.18;100360.56;7398991;19;20022;-72
2023/03/15 01:13:56;;;;;;;13.95;2.33;;;;;;;-0.43;96.18;100368.28;7399256;19;20082;-72
2023/03/15 01:16:28;;;;;;;10.30;1.95;;;;;;;-0.43;97.54;100368.28;7399064;19;20074;-72
2023/03/15 01:18:56;;;;;;;13.70;2.17;;;;;;;-0.45;97.36;100380.25;7401107;19;20079;-72
2023/03/15 01:21:25;;;;;;;8.38;2.17;;;;;;;-0.48;96.90;100376.75;7399038;19;20018;-72
2023/03/15 01:23:55;;;;;;;13.90;2.10;;;;;;;-0.52;96.62;100379.28;7399745;19;20446;-72
2023/03/15 01:26:24;;;;;;;9.63;2.08;;;;;;;-0.66;95.91;100366.16;7401022;19;20071;-71
2023/03/15 01:28:53;;;;;;;8.95;1.95;;;;;;;-0.59;96.69;100382.59;7398468;19;20011;-72
2023/03/15 01:31:24;;;;;;;9.18;2.53;;;;;;;-0.62;97.58;100379.97;7398398;19;20517;-72
2023/03/15 01:33:55;;;;;;;8.13;2.10;;;;;;;-0.64;96.91;100385.91;7398793;19;20031;-72
2023/03/15 01:36:24;;;;;;;13.00;2.20;;;;;;;-0.66;96.52;100391.03;7398387;19;20512;-72
2023/03/15 01:38:53;;;;;;;10.43;2.22;;;;;;;-0.69;97.50;100397.00;7398169;19;20496;-72
2023/03/15 01:41:23;;;;;;;12.98;2.85;;;;;;;-0.75;96.76;100385.72;7401192;19;20082;-72
2023/03/15 01:43:52;;;;;;;9.65;2.28;;;;;;;-0.86;96.27;100381.25;7398505;19;20015;-72
2023/03/15 01:46:25;;;;;;;13.07;2.17;;;;;;;-0.77;97.52;100400.28;7398053;19;20106;-72
2023/03/15 01:49:01;;;;;;;12.43;2.55;;;;;;;-0.79;97.18;100405.41;7400453;19;20019;-72
2023/03/15 01:51:35;;;;;;;12.52;3.33;;;;;;;-0.82;97.84;100407.94;7401406;19;20058;-72
2023/03/15 01:54:08;;;;;;;13.70;3.10;;;;;;;-0.83;99.05;100406.19;7398432;19;20063;-72
2023/03/15 01:56:41;;;;;;;18.45;4.15;;;;;;;-0.85;98.74;100413.91;7397658;19;20510;-72
2023/03/15 01:59:16;;;;;;;9.70;3.53;;;;;;;-0.89;98.37;100401.78;7398573;19;20074;-72
2023/03/15 02:01:47;;;;;;;9.82;2.88;;;;;;;-0.90;97.87;100410.34;7397703;19;20018;-72
2023/03/15 02:04:23;;;;;;;11.48;3.00;;;;;;;-0.92;97.58;100413.72;7398448;19;20489;-72
2023/03/15 02:06:57;;;;;;;12.43;3.08;;;;;;;-0.94;97.42;100416.28;7398022;19;20015;-72
2023/03/15 02:09:31;;;;;;;13.40;2.55;;;;;;;-0.95;97.54;100418.81;7397669;19;20098;-72
2023/03/15 02:12:00;;;;;;;17.83;2.83;;;;;;;-0.98;98.45;100407.59;7396904;19;20370;-72
2023/03/15 02:14:36;;;;;;;8.05;1.90;;;;;;;-1.00;98.04;100411.88;7391612;19;20082;-67
2023/03/15 02:17:05;;;;;;;12.68;3.72;;;;;;;-1.02;98.34;100417.84;7397428;19;20621;-68
2023/03/15 02:19:46;;;;;;;8.65;2.08;;;;;;;-1.03;98.04;100418.66;7398159;19;20019;-68
2023/03/15 02:22:30;;;;;;;7.53;2.00;;;;;;;-1.06;97.94;100410.88;7396764;19;20078;-68
2023/03/15 02:25:09;;;;;;;4.95;1.90;;;;;;;-1.08;98.38;100413.41;7398433;19;20434;-69
2023/03/15 02:27:43;;;;;;;7.97;2.40;;;;;;;-1.08;98.16;100420.28;7396586;19;20022;-68
2023/03/15 02:30:13;;;;;;;5.22;1.83;;;;;;;-1.07;99.17;100420.31;7397733;19;20040;-69
2023/03/15 02:32:42;;;;;;;12.43;3.00;;;;;;;-1.07;99.12;100427.19;7397146;19;20081;-69
2023/03/15 02:35:11;;;;;;;11.10;2.38;;;;;;;-1.08;99.02;100420.28;7397956;19;20019;-68
2023/03/15 02:37:44;;;;;;;12.27;2.60;;;;;;;-1.07;99.15;100422.88;7395755;19;20082;-68
2023/03/15 02:40:20;;;;;;;13.38;2.45;;;;;;;-1.07;98.92;100434.91;7398223;19;20019;-68
2023/03/15 02:42:57;;;;;;;6.07;2.05;;;;;;;-1.10;98.63;100435.72;7395410;19;20438;-68
2023/03/15 02:45:27;;;;;;;11.88;3.00;;;;;;;-1.09;98.93;100431.41;7397263;19;20506;-67
2023/03/15 02:47:56;;;;;;;8.23;1.83;;;;;;;-1.10;99.30;100435.72;7397106;19;20018;-68
2023/03/15 02:50:25;;;;;;;12.07;2.40;;;;;;;-1.10;99.19;100442.53;7395275;19;20583;-69
2023/03/15 02:52:54;;;;;;;12.40;2.55;;;;;;;-1.11;99.39;100445.94;7396533;19;20094;-68
2023/03/15 02:55:22;;;;;;;10.23;3.08;;;;;;;-1.12;100.00;100449.38;7397315;19;20019;-68
2023/03/15 02:57:53;;;;;;;10.35;2.10;;;;;;;-1.13;100.00;100451.06;7395214;19;20089;-68
2023/03/15 03:00:23;;;;;;;7.55;2.05;;;;;;;-1.16;99.27;100454.47;7396827;19;20541;-68
2023/03/15 03:02:51;;;;;;;9.18;2.40;;;;;;;-1.16;99.08;100462.19;7396335;19;20532;-68
2023/03/15 03:05:20;;;;;;;10.07;2.55;;;;;;;-1.17;99.68;100462.16;7397070;19;20039;-68
2023/03/15 03:07:49;;;;;;;12.45;2.22;;;;;;;-1.18;99.70;100471.56;7396924;19;20025;-67
2023/03/15 03:10:20;;;;;;;6.75;2.08;;;;;;;-1.20;99.43;100465.53;7394684;19;20011;-68
2023/03/15 03:12:52;;;;;;;13.48;3.03;;;;;;;-1.20;99.71;100473.25;7396122;19;20518;-68
2023/03/15 03:15:23;;;;;;;7.03;3.28;;;;;;;-1.20;99.89;100474.94;7394832;19;20010;-68
2023/03/15 03:17:53;;;;;;;11.60;3.20;;;;;;;-1.21;99.97;100476.66;7394643;19;20010;-68
2023/03/15 03:20:21;;;;;;;13.30;3.10;;;;;;;-1.21;100.00;100474.09;7394708;19;20019;-68
2023/03/15 03:22:50;;;;;;;12.43;2.90;;;;;;;-1.22;100.00;100480.06;7397708;19;20011;-68
2023/03/15 03:25:19;;;;;;;7.95;2.40;;;;;;;-1.26;100.00;100480.84;7396197;19;20011;-68
2023/03/15 03:27:47;;;;;;;11.45;2.55;;;;;;;-1.23;100.00;100488.63;7397123;19;20022;-68
2023/03/15 03:30:16;;;;;;;12.73;2.38;;;;;;;-1.24;100.00;100489.47;7394547;19;20549;-69
2023/03/15 03:32:47;;;;;;;18.17;3.58;;;;;;;-1.24;100.00;100501.47;7395476;19;20078;-69
2023/03/15 03:35:16;;;;;;;13.95;3.20;;;;;;;-1.24;100.00;100502.34;7395469;19;20018;-69
2023/03/15 03:37:44;;;;;;;10.95;2.65;;;;;;;-1.27;100.00;100494.53;7394208;19;20074;-67
2023/03/15 03:40:14;;;;;;;12.65;2.50;;;;;;;-1.25;100.00;100497.13;7395914;19;20081;-67
2023/03/15 03:42:42;;;;;;;12.65;2.53;;;;;;;-1.24;100.00;100514.34;7395397;19;20018;-67
2023/03/15 03:45:12;;;;;;;14.85;2.78;;;;;;;-1.25;99.95;100507.44;7395348;19;20510;-68
2023/03/15 03:47:41;;;;;;;13.93;2.88;;;;;;;-1.24;99.68;100509.19;7395629;19;20074;-67
2023/03/15 03:50:13;;;;;;;10.60;2.80;;;;;;;-1.24;99.87;100504.94;7395451;19;20041;-68
2023/03/15 03:52:42;;;;;;;14.57;2.20;;;;;;;-1.23;99.45;100509.22;7395355;19;20022;-68
2023/03/15 03:55:12;;;;;;;10.85;2.60;;;;;;;-1.21;98.72;100515.28;7394958;19;20015;-68
2023/03/15 03:57:40;;;;;;;11.80;2.80;;;;;;;-1.19;98.68;100520.44;7394149;19;20021;-67
2023/03/15 04:00:13;;;;;;;14.40;2.08;;;;;;;-1.18;98.26;100519.63;7395540;19;20086;-68
2023/03/15 04:02:41;;;;;;;9.68;2.83;;;;;;;-1.16;98.89;100523.13;7395068;19;20038;-68
2023/03/15 04:05:13;;;;;;;10.60;3.03;;;;;;;-1.14;98.51;100531.72;7393415;19;20077;-68
2023/03/15 04:07:41;;;;;;;13.32;3.22;;;;;;;-1.15;98.73;100538.59;7393112;19;20023;-68
2023/03/15 04:10:13;;;;;;;12.38;2.72;;;;;;;-1.13;98.49;100532.59;7394969;19;20098;-69
2023/03/15 04:12:42;;;;;;;14.57;2.72;;;;;;;-1.13;99.43;100533.47;7394755;19;20018;-68
2023/03/15 04:15:11;;;;;;;15.40;2.58;;;;;;;-1.11;98.75;100538.66;7392188;19;20491;-69
2023/03/15 04:17:39;;;;;;;8.82;2.40;;;;;;;-1.12;98.97;100542.94;7393549;19;20014;-68
2023/03/15 04:20:10;;;;;;;14.05;2.42;;;;;;;-1.11;99.50;100546.38;7392496;19;20524;-67
2023/03/15 04:22:48;;;;;;;9.80;2.85;;;;;;;-1.12;98.25;100550.66;7393012;19;20019;-68
2023/03/15 04:25:16;;;;;;;14.65;2.65;;;;;;;-1.11;98.22;100561.81;7394038;19;20014;-68
2023/03/15 04:27:45;;;;;;;9.93;2.42;;;;;;;-1.13;97.80;100558.34;7394053;19;20089;-67
2023/03/15 04:30:14;;;;;;;15.38;2.83;;;;;;;-1.14;97.75;100562.63;7394042;19;20032;-68
2023/03/15 04:32:43;;;;;;;7.35;2.13;;;;;;;-1.12;98.06;100562.69;7393826;19;20082;-68
2023/03/15 04:35:11;;;;;;;10.60;2.20;;;;;;;-1.12;97.21;100565.25;7394282;19;20014;-67
2023/03/15 04:37:42;;;;;;;6.80;2.38;;;;;;;-1.12;99.15;100568.69;7392998;19;20014;-66
2023/03/15 04:40:12;;;;;;;18.85;2.38;;;;;;;-1.12;99.53;100567.84;7392267;19;20071;-68
2023/03/15 04:42:48;;;;;;;11.88;2.17;;;;;;;-1.12;99.68;100567.84;7392705;19;20018;-68
2023/03/15 04:45:17;;;;;;;9.48;2.40;;;;;;;-1.14;100.00;100570.34;7394098;19;20090;-68
2023/03/15 04:47:45;;;;;;;7.55;2.40;;;;;;;-1.13;99.61;100573.81;7391639;19;20085;-68
2023/03/15 04:50:14;;;;;;;14.82;3.13;;;;;;;-1.18;99.12;100571.97;7391423;19;20090;-68
2023/03/15 04:52:46;;;;;;;10.70;3.08;;;;;;;-1.18;99.43;100577.13;7391685;19;20430;-68
2023/03/15 04:55:14;;;;;;;13.55;3.13;;;;;;;-1.19;99.14;100596.00;7399504;19;20085;-68
2023/03/15 04:57:43;;;;;;;10.60;2.65;;;;;;;-1.22;98.04;100601.06;7400613;19;20070;-68
2023/03/15 05:00:13;;;;;;;13.25;3.83;;;;;;;-1.23;98.28;100608.75;7400682;19;20482;-68
2023/03/15 05:02:42;;;;;;;9.90;3.03;;;;;;;-1.24;98.25;100607.00;7401598;19;20046;-69
2023/03/15 05:05:12;;;;;;;11.50;3.08;;;;;;;-1.23;97.51;100611.31;7400859;19;20026;-68
2023/03/15 05:07:41;;;;;;;11.63;3.70;;;;;;;-1.25;97.17;100616.44;7400792;19;20024;-68
2023/03/15 05:10:13;;;;;;;9.98;3.22;;;;;;;-1.24;97.66;100614.72;7398162;19;20427;-70
2023/03/15 05:12:41;;;;;;;14.95;4.32;;;;;;;-1.24;96.87;100620.78;7400690;19;20081;-68
2023/03/15 05:15:11;;;;;;;12.32;3.38;;;;;;;-1.24;97.58;100622.44;7398107;19;20027;-68
2023/03/15 05:17:40;;;;;;;14.43;2.47;;;;;;;-1.22;97.72;100621.66;7399666;19;20055;-67
2023/03/15 05:20:11;;;;;;;9.38;2.88;;;;;;;-1.20;97.67;100625.16;7399857;19;20035;-68
2023/03/15 05:22:40;;;;;;;6.43;2.53;;;;;;;-1.16;98.56;100638.97;7400530;19;20022;-69
2023/03/15 05:25:12;;;;;;;13.82;3.13;;;;;;;-1.14;98.49;100629.56;7399686;19;20019;-68
2023/03/15 05:27:41;;;;;;;15.40;2.97;;;;;;;-1.10;98.70;100636.56;7400423;19;20011;-68
2023/03/15 05:30:11;;;;;;;14.73;3.38;;;;;;;-1.07;97.70;100640.91;7399995;19;20086;-68
2023/03/15 05:32:43;;;;;;;10.93;2.50;;;;;;;-1.02;98.33;100641.88;7399405;19;20014;-69
2023/03/15 05:35:13;;;;;;;10.48;2.70;;;;;;;-0.98;98.45;100656.56;7397501;19;20077;-68
2023/03/15 05:37:41;;;;;;;8.55;2.95;;;;;;;-0.96;98.22;100651.44;7399125;19;20032;-69
2023/03/15 05:40:14;;;;;;;7.97;2.85;;;;;;;-0.91;97.45;100648.16;7398809;19;20425;-68
2023/03/15 05:42:43;;;;;;;10.40;2.75;;;;;;;-0.87;98.02;100654.25;7399086;19;20081;-69
2023/03/15 05:45:12;;;;;;;13.05;3.17;;;;;;;-0.84;98.34;100660.31;7396777;19;20086;-69
2023/03/15 05:47:40;;;;;;;8.70;3.05;;;;;;;-0.78;97.62;100658.72;7396564;19;20384;-68
2023/03/15 05:50:10;;;;;;;10.10;3.03;;;;;;;-0.75;97.41;100667.41;7398921;19;20509;-68
2023/03/15 05:52:38;;;;;;;8.77;2.03;;;;;;;-0.71;96.97;100673.50;7398654;19;20027;-68
2023/03/15 05:55:07;;;;;;;10.32;2.30;;;;;;;-0.69;96.33;100671.84;7396958;19;20014;-68
2023/03/15 05:57:39;;;;;;;12.07;2.72;;;;;;;-0.64;96.52;100677.06;7398984;19;20076;-68
2023/03/15 06:00:11;;;;;;;8.38;2.75;;;;;;;-0.61;96.62;100675.44;7395775;19;20014;-68
2023/03/15 06:02:46;;;;;;;9.00;2.20;;;;;;;-0.57;96.53;100679.84;7398290;19;20030;-68
2023/03/15 06:05:15;;;;;;;10.02;4.05;;;;;;;-0.56;96.59;100681.56;7396227;19;20561;-68
2023/03/15 06:07:45;;;;;;;8.65;2.88;;;;;;;-0.51;96.28;100690.28;7396688;19;20506;-70
2023/03/15 06:10:13;;;;;;;7.32;2.67;;;;;;;-0.47;95.93;100683.50;7398270;19;20034;-69
2023/03/15 06:12:44;;;;;;;8.35;3.33;;;;;;;-0.44;95.84;100693.00;7395804;19;20486;-69
2023/03/15 06:15:13;;;;;;;12.68;4.88;;;;;;;-0.42;96.47;100692.19;7395777;19;20069;-68
2023/03/15 06:17:41;;;;;;;10.02;2.92;;;;;;;-0.40;95.28;100694.81;7397370;19;20510;-68
2023/03/15 06:20:12;;;;;;;11.65;3.00;;;;;;;-0.38;94.45;100703.44;7397904;19;20027;-68
2023/03/15 06:22:40;;;;;;;13.35;3.30;;;;;;;-0.35;95.71;100703.53;7394264;19;20490;-68
2023/03/15 06:25:10;;;;;;;15.88;3.17;;;;;;;-0.35;95.39;100709.53;7396513;19;20078;-69
2023/03/15 06:27:39;;;;;;;9.50;3.17;;;;;;;-0.34;95.50;100710.44;7396956;19;20023;-68
2023/03/15 06:30:12;;;;;;;14.27;2.88;;;;;;;-0.34;95.83;100720.75;7397539;19;20365;-68
2023/03/15 06:33:02;;;;;;;9.40;3.47;;;;;;;-0.35;96.02;100726.72;7397042;19;20014;-68
2023/03/15 06:35:31;;;;;;;12.85;2.88;;;;;;;-0.34;95.96;100720.75;7397675;19;20015;-68
2023/03/15 06:38:00;;;;;;;10.55;3.38;;;;;;;-0.34;95.98;100729.34;7398446;19;20082;-69
2023/03/15 06:40:28;;;;;;;14.95;3.78;;;;;;;-0.32;96.19;100744.84;7398046;19;20022;-68
2023/03/15 06:42:56;;;;;;;10.98;3.88;;;;;;;-0.29;96.06;100752.66;7398665;19;20015;-68
2023/03/15 06:45:30;;;;;;;12.05;3.60;;;;;;;-0.27;96.03;100758.69;7397620;19;20023;-68
2023/03/15 06:47:59;;;;;;;14.85;3.25;;;;;;;-0.23;95.25;100755.38;7397993;19;20018;-68
2023/03/15 06:50:27;;;;;;;7.05;2.53;;;;;;;-0.17;94.84;100764.94;7395911;19;20423;-68
2023/03/15 06:52:56;;;;;;;14.07;2.42;;;;;;;-0.11;95.10;100756.50;7396738;19;20074;-69
2023/03/15 06:55:25;;;;;;;10.55;2.60;;;;;;;-0.05;95.07;100764.34;7395544;19;20018;-68
2023/03/15 06:57:53;;;;;;;9.35;2.10;;;;;;;0.01;94.87;100769.63;7396962;19;20078;-67
2023/03/15 07:00:22;;;;;;;14.20;2.97;;;;;;;0.06;93.68;100774.91;7397005;19;20019;-67
2023/03/15 07:02:53;;;;;;;10.85;2.65;;;;;;;0.10;93.35;100776.69;7396544;19;20094;-67
2023/03/15 07:05:22;;;;;;;11.55;2.80;;;;;;;0.19;93.47;100778.59;7397138;19;20031;-68
2023/03/15 07:07:50;;;;;;;7.93;2.80;;;;;;;0.24;93.82;100782.16;7396661;19;20027;-68
2023/03/15 07:10:19;;;;;;;9.75;3.08;;;;;;;0.30;94.11;100780.59;7395399;19;20086;-68
2023/03/15 07:12:47;;;;;;;11.35;2.47;;;;;;;0.37;94.32;100780.69;7394428;19;20027;-68
2023/03/15 07:15:28;;;;;;;8.82;2.42;;;;;;;0.42;94.17;100785.13;7393826;19;20082;-69
2023/03/15 07:17:59;;;;;;;14.55;3.00;;;;;;;0.49;92.18;100786.13;7394004;19;20102;-69
2023/03/15 07:20:28;;;;;;;11.88;3.10;;;;;;;0.56;93.43;100790.56;7396552;19;20109;-69
2023/03/15 07:22:56;;;;;;;8.45;2.58;;;;;;;0.62;92.88;100794.97;7395799;19;20035;-68
2023/03/15 07:25:25;;;;;;;17.80;2.70;;;;;;;0.68;92.13;100796.81;7395428;19;20160;-69
2023/03/15 07:27:54;;;;;;;12.45;3.28;;;;;;;0.75;93.10;100796.97;7395211;19;20021;-68
2023/03/15 07:30:23;;;;;;;12.15;3.55;;;;;;;0.84;93.31;100793.69;7395729;19;20014;-68
2023/03/15 07:32:51;;;;;;;18.95;5.75;;;;;;;0.91;93.66;100800.72;7393161;19;20428;-67
2023/03/15 07:35:22;;;;;;;13.80;3.30;;;;;;;0.96;89.99;100804.25;7395620;19;20027;-67
2023/03/15 07:37:51;;;;;;;14.95;3.30;;;;;;;1.03;91.72;100794.03;7394125;19;20070;-68
2023/03/15 07:40:20;;;;;;;8.57;2.75;;;;;;;1.06;91.02;100804.41;7393357;19;20094;-68
2023/03/15 07:42:48;;;;;;;13.30;3.15;;;;;;;1.11;89.85;100813.13;7394728;19;20019;-68
2023/03/15 07:45:17;;;;;;;10.40;2.30;;;;;;;1.14;91.75;100811.47;7393264;19;20403;-68
2023/03/15 07:47:45;;;;;;;11.63;3.20;;;;;;;1.19;91.37;100805.50;7395204;19;20383;-67
2023/03/15 07:50:15;;;;;;;7.90;2.47;;;;;;;1.22;90.62;100806.44;7395470;19;20094;-68
2023/03/15 07:52:46;;;;;;;9.00;2.60;;;;;;;1.26;90.30;100816.00;7394774;19;20018;-68
2023/03/15 07:55:15;;;;;;;11.65;2.42;;;;;;;1.31;89.57;100813.47;7395568;19;20039;-68
2023/03/15 07:57:43;;;;;;;10.57;2.58;;;;;;;1.34;90.58;100820.41;7394702;19;20433;-68
2023/03/15 08:00:13;;;;;;;11.05;3.25;;;;;;;1.37;89.92;100823.06;7393332;19;20082;-68
2023/03/15 08:02:42;;;;;;;10.48;2.25;;;;;;;1.40;90.71;100820.53;7392548;19;20018;-68
2023/03/15 08:05:11;;;;;;;11.85;2.45;;;;;;;1.42;89.63;100822.28;7394929;19;20022;-68
2023/03/15 08:07:39;;;;;;;9.05;3.20;;;;;;;1.48;89.82;100824.13;7393451;19;20021;-68
2023/03/15 08:10:12;;;;;;;8.00;2.90;;;;;;;1.53;89.14;100831.94;7394524;19;20478;-68
2023/03/15 08:12:41;;;;;;;11.90;2.92;;;;;;;1.58;88.45;100832.88;7394503;19;20038;-68
2023/03/15 08:15:12;;;;;;;7.22;3.03;;;;;;;1.65;90.91;100831.28;7391803;19;20007;-68
2023/03/15 08:17:41;;;;;;;10.20;2.80;;;;;;;1.73;90.27;100829.69;7391697;19;20098;-68
2023/03/15 08:20:13;;;;;;;7.72;3.00;;;;;;;1.81;89.15;100833.25;7391569;19;20111;-69
2023/03/15 08:22:43;;;;;;;12.93;2.80;;;;;;;1.88;89.67;100829.06;7393549;19;20022;-69
2023/03/15 08:25:16;;;;;;;8.27;2.92;;;;;;;1.93;85.93;100832.56;7394249;19;20014;-69
2023/03/15 08:27:45;;;;;;;7.18;2.50;;;;;;;2.00;88.31;100830.94;7394225;19;20028;-69
2023/03/15 08:30:16;;;;;;;10.80;2.45;;;;;;;2.05;87.87;100832.75;7396825;19;20082;-67
2023/03/15 08:32:46;;;;;;;4.43;2.05;;;;;;;2.07;86.96;100820.72;7398928;19;20042;-68
2023/03/15 08:35:17;;;;;;;13.80;2.78;;;;;;;2.19;87.80;100837.28;7401981;19;20031;-68
2023/03/15 08:37:46;;;;;;;11.57;2.65;;;;;;;2.23;85.21;100844.22;7402390;19;20042;-69
2023/03/15 08:40:19;;;;;;;8.55;2.67;;;;;;;2.28;89.44;100848.59;7398757;19;20015;-69
2023/03/15 08:42:48;;;;;;;9.10;2.63;;;;;;;2.30;89.94;100838.31;7401148;19;20031;-69
2023/03/15 08:45:16;;;;;;;6.50;2.50;;;;;;;2.38;87.53;100859.13;7398716;19;20439;-68
2023/03/15 08:47:45;;;;;;;11.45;3.08;;;;;;;2.40;85.43;100849.63;7398647;19;20078;-69
2023/03/15 08:50:15;;;;;;;12.23;3.33;;;;;;;2.40;87.07;100860.00;7400875;19;20498;-68
2023/03/15 08:52:44;;;;;;;13.50;2.90;;;;;;;2.42;85.62;100858.31;7398834;19;20074;-69
2023/03/15 08:55:14;;;;;;;7.47;2.80;;;;;;;2.42;85.98;100855.72;7400753;19;20078;-68
2023/03/15 08:57:45;;;;;;;13.40;3.60;;;;;;;2.44;86.80;100867.81;7400461;19;20042;-68
2023/03/15 09:00:19;;;;;;;7.90;2.65;;;;;;;2.49;88.39;100864.41;7397953;19;20022;-68
2023/03/15 09:02:50;;;;;;;13.20;3.03;;;;;;;2.52;87.66;100872.25;7399871;19;20509;-68
2023/03/15 09:05:19;;;;;;;9.55;2.97;;;;;;;2.55;89.04;100877.47;7398611;19;20074;-70
2023/03/15 09:07:49;;;;;;;9.07;3.50;;;;;;;2.57;87.52;100870.59;7400682;19;20011;-68
2023/03/15 09:10:18;;;;;;;13.80;3.55;;;;;;;2.61;84.14;100885.31;7400410;19;20070;-67
2023/03/15 09:12:52;;;;;;;11.15;3.92;;;;;;;2.65;82.83;100888.81;7400246;19;20035;-68
2023/03/15 09:15:21;;;;;;;9.98;3.40;;;;;;;2.69;82.51;100886.31;7398850;19;20046;-69
2023/03/15 09:17:51;;;;;;;16.40;4.10;;;;;;;2.76;83.73;100900.19;7397706;19;20022;-69
2023/03/15 09:20:21;;;;;;;11.75;4.78;;;;;;;2.83;81.69;100895.94;7397809;19;20022;-69
2023/03/15 09:22:54;;;;;;;6.80;3.95;;;;;;;2.85;76.92;100915.84;7400266;19;20083;-68
2023/03/15 09:25:24;;;;;;;12.57;5.70;;;;;;;2.90;81.11;100902.97;7399922;19;20078;-68
2023/03/15 09:27:55;;;;;;;8.50;4.95;;;;;;;2.93;80.00;100908.16;7399548;19;20541;-68
2023/03/15 09:30:24;;;;;;;9.18;4.65;;;;;;;2.95;79.42;100916.84;7399937;19;20107;-67
2023/03/15 09:32:52;;;;;;;9.45;4.43;;;;;;;2.99;82.28;100921.19;7399097;19;20078;-67
2023/03/15 09:35:22;;;;;;;10.25;4.55;;;;;;;2.99;77.42;100934.16;7399440;19;20423;-68
2023/03/15 09:37:51;;;;;;;8.60;3.47;;;;;;;3.01;79.59;100935.06;7399466;19;20031;-68
2023/03/15 09:40:23;;;;;;;12.57;4.10;;;;;;;3.02;79.73;100928.16;7396696;19;20086;-68
2023/03/15 09:43:04;;;;;;;10.63;3.72;;;;;;;3.06;80.71;100922.16;7396937;19;20070;-68
2023/03/15 09:45:44;;;;;;;7.78;3.30;;;;;;;3.14;80.39;100923.13;7399881;19;20090;-68
2023/03/15 09:48:17;;;;;;;7.40;3.17;;;;;;;3.23;78.78;100941.34;7399738;19;20078;-69
2023/03/15 09:50:50;;;;;;;12.48;3.35;;;;;;;3.37;80.86;100930.28;7399732;19;20070;-68
2023/03/15 09:53:22;;;;;;;6.70;3.10;;;;;;;3.49;79.40;100927.81;7396524;19;20027;-68
2023/03/15 09:55:53;;;;;;;10.13;3.85;;;;;;;3.61;81.25;100932.25;7399289;19;20018;-67
2023/03/15 09:58:31;;;;;;;8.65;4.53;;;;;;;3.64;72.20;100937.50;7396959;19;20022;-70
2023/03/15 10:01:03;;;;;;;8.57;3.75;;;;;;;3.69;79.96;100942.72;7396659;19;20019;-68
2023/03/15 10:03:37;;;;;;;11.05;4.10;;;;;;;3.67;76.66;100955.66;7395827;19;20074;-67
2023/03/15 10:06:14;;;;;;;8.75;3.03;;;;;;;3.65;76.90;100949.63;7398961;19;20015;-67
2023/03/15 10:08:43;;;;;;;7.45;3.35;;;;;;;3.60;74.35;100969.44;7396408;19;20022;-68
2023/03/15 10:11:16;;;;;;;6.53;3.08;;;;;;;3.56;74.90;100950.41;7398207;19;20022;-67
2023/03/15 10:14:02;;;;;;;7.05;3.17;;;;;;;3.52;75.05;100965.91;7397310;19;20078;-68
2023/03/15 10:16:41;;;;;;;5.93;3.08;;;;;;;3.57;77.54;100967.66;7395921;19;20027;-68
2023/03/15 10:19:19;;;;;;;6.72;2.95;;;;;;;3.57;72.77;100953.84;7396368;19;20078;-68
2023/03/15 10:21:56;;;;;;;11.15;3.47;;;;;;;3.61;77.05;100959.94;7397364;19;20022;-68
2023/03/15 10:24:33;;;;;;;9.02;3.20;;;;;;;3.64;76.20;100959.97;7395348;19;20078;-68
2023/03/15 10:27:17;;;;;;;8.60;4.00;;;;;;;3.72;80.96;100954.00;7397457;19;20431;-68
2023/03/15 10:29:50;;;;;;;6.43;3.17;;;;;;;3.77;74.41;100953.16;7398188;19;20019;-68
2023/03/15 10:32:21;;;;;;;9.82;3.50;;;;;;;3.80;77.07;100963.59;7397135;19;20489;-67
2023/03/15 10:34:52;;;;;;;10.15;3.40;;;;;;;3.82;76.62;100961.88;7395124;19;20023;-67
2023/03/15 10:37:22;;;;;;;7.68;3.20;;;;;;;3.77;72.99;100958.34;7395791;19;20039;-69
2023/03/15 10:39:56;;;;;;;7.32;3.35;;;;;;;3.73;72.58;100968.72;7395915;19;20351;-69
2023/03/15 10:42:30;;;;;;;11.02;4.43;;;;;;;3.72;74.13;100969.56;7395577;19;20025;-69
2023/03/15 10:45:12;;;;;;;11.32;3.78;;;;;;;3.70;74.45;100971.28;7397819;19;20085;-67
2023/03/15 10:47:44;;;;;;;7.03;3.10;;;;;;;3.71;78.77;100969.56;7397968;19;20017;-68
2023/03/15 10:50:19;;;;;;;9.10;3.20;;;;;;;3.73;78.93;100971.31;7397768;19;20083;-68
2023/03/15 10:52:48;;;;;;;11.25;3.63;;;;;;;3.74;77.30;100974.75;7395510;19;20564;-68
2023/03/15 10:55:18;;;;;;;7.90;2.80;;;;;;;3.72;74.19;100979.94;7394921;19;20023;-68
2023/03/15 10:57:55;;;;;;;9.32;3.65;;;;;;;3.69;72.72;100972.13;7397347;19;20086;-68
2023/03/15 11:00:29;;;;;;;8.02;3.08;;;;;;;3.67;76.28;100976.44;7396201;19;20019;-68
2023/03/15 11:03:07;;;;;;;7.22;3.30;;;;;;;3.63;73.57;100985.06;7396867;19;20019;-67
2023/03/15 11:05:43;;;;;;;7.00;2.95;;;;;;;3.62;78.82;100970.31;7397362;19;20018;-67
2023/03/15 11:08:15;;;;;;;7.95;3.28;;;;;;;3.63;78.22;100977.25;7397225;19;20040;-70
2023/03/15 11:10:45;;;;;;;10.02;3.65;;;;;;;3.67;74.73;100971.25;7394728;19;20364;-68
2023/03/15 11:13:19;;;;;;;4.05;2.78;;;;;;;3.75;72.64;100961.81;7395509;19;20026;-67
2023/03/15 11:16:05;;;;;;;5.53;2.45;;;;;;;3.87;68.23;100975.78;7394574;19;20022;-68
2023/03/15 11:18:37;;;;;;;5.53;2.50;;;;;;;4.04;75.53;100966.41;7396625;19;20023;-68
2023/03/15 11:21:10;;;;;;;4.25;2.10;;;;;;;4.22;70.36;100973.50;7394653;19;20086;-68
2023/03/15 11:23:41;;;;;;;10.75;2.40;;;;;;;4.42;73.61;100977.09;7393948;19;20067;-67
2023/03/15 11:26:16;;;;;;;5.75;2.58;;;;;;;4.56;64.73;100980.66;7395551;19;20014;-68
2023/03/15 11:28:50;;;;;;;8.20;1.63;;;;;;;4.62;62.46;100970.28;7394498;19;20031;-68
2023/03/15 11:31:22;;;;;;;6.28;1.40;;;;;;;4.64;58.44;100984.19;7396292;19;20034;-67
2023/03/15 11:33:56;;;;;;;5.47;1.30;;;;;;;4.66;64.27;100978.97;7394141;19;20037;-67
2023/03/15 11:36:28;;;;;;;4.20;1.10;;;;;;;4.65;61.29;100985.94;7395119;19;20014;-67
2023/03/15 11:38:57;;;;;;;4.07;1.73;;;;;;;4.69;62.96;100985.06;7396309;19;20078;-67
2023/03/15 11:41:34;;;;;;;6.68;2.08;;;;;;;4.74;62.19;100982.50;7394455;19;20429;-68